sensor_id;sensor_type;location;lat;lon;timestamp;temperature;humidity
77613;DHT22;66777;52.282;5.960;2023-04-08T00:01:15;3.60;94.00
77613;DHT22;66777;52.282;5.960;2023-04-08T00:03:42;3.60;93.90
77613;DHT22;66777;52.282;5.960;2023-04-08T00:06:07;3.60;93.90
77613;DHT22;66777;52.282;5.960;2023-04-08T00:08:33;3.50;93.90
77613;DHT22;66777;52.282;5.960;2023-04-08T00:10:59;3.50;93.90
77613;DHT22;66777;52.282;5.960;2023-04-08T00:13:25;3.50;93.80
77613;DHT22;66777;52.282;5.960;2023-04-08T00:15:51;3.50;93.80
77613;DHT22;66777;52.282;5.960;2023-04-08T00:18:17;3.50;93.80
77613;DHT22;66777;52.282;5.960;2023-04-08T00:20:43;3.50;93.90
77613;DHT22;66777;52.282;5.960;2023-04-08T00:23:10;3.50;93.90
77613;DHT22;66777;52.282;5.960;2023-04-08T00:25:36;3.50;93.80
77613;DHT22;66777;52.282;5.960;2023-04-08T00:28:02;3.50;93.80
77613;DHT22;66777;52.282;5.960;2023-04-08T00:30:27;3.50;93.90
77613;DHT22;66777;52.282;5.960;2023-04-08T00:32:53;3.50;93.90
77613;DHT22;66777;52.282;5.960;2023-04-08T00:35:19;3.40;93.80
77613;DHT22;66777;52.282;5.960;2023-04-08T00:37:45;3.30;93.80
77613;DHT22;66777;52.282;5.960;2023-04-08T00:40:11;3.20;93.70
77613;DHT22;66777;52.282;5.960;2023-04-08T00:42:37;3.10;93.60
77613;DHT22;66777;52.282;5.960;2023-04-08T00:45:03;3.10;93.60
77613;DHT22;66777;52.282;5.960;2023-04-08T00:47:29;3.00;93.50
77613;DHT22;66777;52.282;5.960;2023-04-08T00:49:55;3.00;93.50
77613;DHT22;66777;52.282;5.960;2023-04-08T00:52:21;2.90;93.50
77613;DHT22;66777;52.282;5.960;2023-04-08T00:54:47;2.90;93.60
77613;DHT22;66777;52.282;5.960;2023-04-08T00:57:14;2.90;93.60
77613;DHT22;66777;52.282;5.960;2023-04-08T00:59:41;2.90;93.50
77613;DHT22;66777;52.282;5.960;2023-04-08T01:02:21;2.80;93.50
77613;DHT22;66777;52.282;5.960;2023-04-08T01:05:06;2.80;93.50
77613;DHT22;66777;52.282;5.960;2023-04-08T01:07:48;2.80;93.50
77613;DHT22;66777;52.282;5.960;2023-04-08T01:10:23;2.80;93.60
77613;DHT22;66777;52.282;5.960;2023-04-08T01:12:56;2.70;93.60
77613;DHT22;66777;52.282;5.960;2023-04-08T01:15:25;2.70;93.60
77613;DHT22;66777;52.282;5.960;2023-04-08T01:17:53;2.70;93.50
77613;DHT22;66777;52.282;5.960;2023-04-08T01:20:25;2.60;93.50
77613;DHT22;66777;52.282;5.960;2023-04-08T01:25:55;2.50;93.50
77613;DHT22;66777;52.282;5.960;2023-04-08T01:28:25;2.50;93.50
77613;DHT22;66777;52.282;5.960;2023-04-08T01:30:56;2.50;93.50
77613;DHT22;66777;52.282;5.960;2023-04-08T01:33:23;2.50;93.40
77613;DHT22;66777;52.282;5.960;2023-04-08T01:35:51;2.50;93.50
77613;DHT22;66777;52.282;5.960;2023-04-08T01:38:19;2.40;93.40
77613;DHT22;66777;52.282;5.960;2023-04-08T01:40:49;2.40;93.40
77613;DHT22;66777;52.282;5.960;2023-04-08T01:43:17;2.40;93.40
77613;DHT22;66777;52.282;5.960;2023-04-08T01:45:44;2.40;93.40
77613;DHT22;66777;52.282;5.960;2023-04-08T01:48:12;2.30;93.40
77613;DHT22;66777;52.282;5.960;2023-04-08T01:50:41;2.30;93.40
77613;DHT22;66777;52.282;5.960;2023-04-08T01:53:08;2.30;93.40
77613;DHT22;66777;52.282;5.960;2023-04-08T01:55:35;2.30;93.30
77613;DHT22;66777;52.282;5.960;2023-04-08T01:58:04;2.20;93.30
77613;DHT22;66777;52.282;5.960;2023-04-08T02:00:33;2.20;93.40
77613;DHT22;66777;52.282;5.960;2023-04-08T02:03:01;2.20;93.30
77613;DHT22;66777;52.282;5.960;2023-04-08T02:05:27;2.10;93.20
77613;DHT22;66777;52.282;5.960;2023-04-08T02:07:53;2.00;93.20
77613;DHT22;66777;52.282;5.960;2023-04-08T02:10:19;2.00;93.20
77613;DHT22;66777;52.282;5.960;2023-04-08T02:12:46;2.00;93.20
77613;DHT22;66777;52.282;5.960;2023-04-08T02:15:13;2.00;93.20
77613;DHT22;66777;52.282;5.960;2023-04-08T02:17:44;1.90;93.20
77613;DHT22;66777;52.282;5.960;2023-04-08T02:20:22;1.90;93.20
77613;DHT22;66777;52.282;5.960;2023-04-08T02:22:58;1.80;93.20
77613;DHT22;66777;52.282;5.960;2023-04-08T02:25:28;1.80;93.20
77613;DHT22;66777;52.282;5.960;2023-04-08T02:27:55;1.80;93.20
77613;DHT22;66777;52.282;5.960;2023-04-08T02:30:23;1.80;93.30
77613;DHT22;66777;52.282;5.960;2023-04-08T02:32:51;1.80;93.30
77613;DHT22;66777;52.282;5.960;2023-04-08T02:35:19;1.80;93.20
77613;DHT22;66777;52.282;5.960;2023-04-08T02:37:45;1.80;93.20
77613;DHT22;66777;52.282;5.960;2023-04-08T02:40:30;1.70;93.20
77613;DHT22;66777;52.282;5.960;2023-04-08T02:42:57;1.70;93.20
77613;DHT22;66777;52.282;5.960;2023-04-08T02:45:27;1.70;93.20
77613;DHT22;66777;52.282;5.960;2023-04-08T02:47:54;1.70;93.20
77613;DHT22;66777;52.282;5.960;2023-04-08T02:50:20;1.70;93.20
77613;DHT22;66777;52.282;5.960;2023-04-08T02:52:46;1.60;93.20
77613;DHT22;66777;52.282;5.960;2023-04-08T02:55:12;1.60;93.20
77613;DHT22;66777;52.282;5.960;2023-04-08T02:57:39;1.60;93.20
77613;DHT22;66777;52.282;5.960;2023-04-08T03:00:06;1.70;93.20
77613;DHT22;66777;52.282;5.960;2023-04-08T03:02:33;1.70;93.20
77613;DHT22;66777;52.282;5.960;2023-04-08T03:04:59;1.70;93.30
77613;DHT22;66777;52.282;5.960;2023-04-08T03:07:26;1.60;93.30
77613;DHT22;66777;52.282;5.960;2023-04-08T03:09:54;1.60;93.20
77613;DHT22;66777;52.282;5.960;2023-04-08T03:12:21;1.60;93.20
77613;DHT22;66777;52.282;5.960;2023-04-08T03:14:49;1.60;93.20
77613;DHT22;66777;52.282;5.960;2023-04-08T03:17:15;1.60;93.20
77613;DHT22;66777;52.282;5.960;2023-04-08T03:19:41;1.60;93.20
77613;DHT22;66777;52.282;5.960;2023-04-08T03:22:07;1.60;93.30
77613;DHT22;66777;52.282;5.960;2023-04-08T03:24:34;1.60;93.30
77613;DHT22;66777;52.282;5.960;2023-04-08T03:27:02;1.60;93.30
77613;DHT22;66777;52.282;5.960;2023-04-08T03:29:28;1.60;93.30
77613;DHT22;66777;52.282;5.960;2023-04-08T03:31:55;1.60;93.30
77613;DHT22;66777;52.282;5.960;2023-04-08T03:34:20;1.60;93.30
77613;DHT22;66777;52.282;5.960;2023-04-08T03:36:46;1.60;93.30
77613;DHT22;66777;52.282;5.960;2023-04-08T03:39:12;1.50;93.20
77613;DHT22;66777;52.282;5.960;2023-04-08T03:41:37;1.50;93.20
77613;DHT22;66777;52.282;5.960;2023-04-08T03:44:03;1.50;93.10
77613;DHT22;66777;52.282;5.960;2023-04-08T03:46:29;1.40;93.10
77613;DHT22;66777;52.282;5.960;2023-04-08T03:48:55;1.40;93.10
77613;DHT22;66777;52.282;5.960;2023-04-08T03:51:21;1.40;93.10
77613;DHT22;66777;52.282;5.960;2023-04-08T03:53:47;1.40;93.10
77613;DHT22;66777;52.282;5.960;2023-04-08T03:56:14;1.20;93.00
77613;DHT22;66777;52.282;5.960;2023-04-08T03:58:41;1.20;93.10
77613;DHT22;66777;52.282;5.960;2023-04-08T04:01:07;1.20;93.00
77613;DHT22;66777;52.282;5.960;2023-04-08T04:03:33;1.20;93.00
77613;DHT22;66777;52.282;5.960;2023-04-08T04:05:59;1.20;93.00
77613;DHT22;66777;52.282;5.960;2023-04-08T04:08:25;1.20;93.00
77613;DHT22;66777;52.282;5.960;2023-04-08T04:10:51;1.10;93.00
77613;DHT22;66777;52.282;5.960;2023-04-08T04:13:17;1.10;93.00
77613;DHT22;66777;52.282;5.960;2023-04-08T04:15:44;1.10;93.00
77613;DHT22;66777;52.282;5.960;2023-04-08T04:18:10;1.10;92.90
77613;DHT22;66777;52.282;5.960;2023-04-08T04:20:39;1.00;93.00
77613;DHT22;66777;52.282;5.960;2023-04-08T04:23:05;1.00;93.00
77613;DHT22;66777;52.282;5.960;2023-04-08T04:25:31;1.00;92.90
77613;DHT22;66777;52.282;5.960;2023-04-08T04:27:57;1.00;92.90
77613;DHT22;66777;52.282;5.960;2023-04-08T04:30:23;1.00;93.00
77613;DHT22;66777;52.282;5.960;2023-04-08T04:32:49;1.00;92.90
77613;DHT22;66777;52.282;5.960;2023-04-08T04:35:15;1.00;92.90
77613;DHT22;66777;52.282;5.960;2023-04-08T04:37:41;1.00;93.00
77613;DHT22;66777;52.282;5.960;2023-04-08T04:40:08;0.80;92.90
77613;DHT22;66777;52.282;5.960;2023-04-08T04:42:34;0.80;92.80
77613;DHT22;66777;52.282;5.960;2023-04-08T04:44:59;0.80;92.80
77613;DHT22;66777;52.282;5.960;2023-04-08T04:47:25;0.80;92.80
77613;DHT22;66777;52.282;5.960;2023-04-08T04:49:51;0.80;92.80
77613;DHT22;66777;52.282;5.960;2023-04-08T04:52:17;0.80;92.90
77613;DHT22;66777;52.282;5.960;2023-04-08T04:54:43;0.80;92.90
77613;DHT22;66777;52.282;5.960;2023-04-08T04:57:09;0.80;92.90
77613;DHT22;66777;52.282;5.960;2023-04-08T04:59:36;0.80;92.80
77613;DHT22;66777;52.282;5.960;2023-04-08T05:02:02;0.70;92.80
77613;DHT22;66777;52.282;5.960;2023-04-08T05:04:27;0.60;92.80
77613;DHT22;66777;52.282;5.960;2023-04-08T05:06:53;0.60;92.80
77613;DHT22;66777;52.282;5.960;2023-04-08T05:09:20;0.60;92.80
77613;DHT22;66777;52.282;5.960;2023-04-08T05:11:46;0.60;92.70
77613;DHT22;66777;52.282;5.960;2023-04-08T05:14:12;0.60;92.70
77613;DHT22;66777;52.282;5.960;2023-04-08T05:16:37;0.60;92.60
77613;DHT22;66777;52.282;5.960;2023-04-08T05:19:04;0.60;92.60
77613;DHT22;66777;52.282;5.960;2023-04-08T05:21:30;0.60;92.60
77613;DHT22;66777;52.282;5.960;2023-04-08T05:23:57;0.60;92.60
77613;DHT22;66777;52.282;5.960;2023-04-08T05:26:23;0.60;92.70
77613;DHT22;66777;52.282;5.960;2023-04-08T05:28:49;0.60;92.80
77613;DHT22;66777;52.282;5.960;2023-04-08T05:31:18;0.60;92.80
77613;DHT22;66777;52.282;5.960;2023-04-08T05:33:45;0.60;92.80
77613;DHT22;66777;52.282;5.960;2023-04-08T05:36:12;0.70;92.80
77613;DHT22;66777;52.282;5.960;2023-04-08T05:38:39;0.80;92.80
77613;DHT22;66777;52.282;5.960;2023-04-08T05:41:08;0.80;92.80
77613;DHT22;66777;52.282;5.960;2023-04-08T05:43:35;0.80;92.90
77613;DHT22;66777;52.282;5.960;2023-04-08T05:46:06;0.90;92.90
77613;DHT22;66777;52.282;5.960;2023-04-08T05:48:32;1.00;92.90
77613;DHT22;66777;52.282;5.960;2023-04-08T05:50:59;1.00;92.90
77613;DHT22;66777;52.282;5.960;2023-04-08T05:53:25;1.00;92.90
77613;DHT22;66777;52.282;5.960;2023-04-08T05:55:51;1.00;92.90
77613;DHT22;66777;52.282;5.960;2023-04-08T05:58:16;1.10;92.90
77613;DHT22;66777;52.282;5.960;2023-04-08T06:00:42;1.10;92.90
77613;DHT22;66777;52.282;5.960;2023-04-08T06:03:08;1.10;92.90
77613;DHT22;66777;52.282;5.960;2023-04-08T06:05:34;1.20;92.90
77613;DHT22;66777;52.282;5.960;2023-04-08T06:07:59;1.20;92.90
77613;DHT22;66777;52.282;5.960;2023-04-08T06:10:26;1.30;92.90
77613;DHT22;66777;52.282;5.960;2023-04-08T06:12:52;1.30;92.80
77613;DHT22;66777;52.282;5.960;2023-04-08T06:15:18;1.40;92.90
77613;DHT22;66777;52.282;5.960;2023-04-08T06:17:43;1.40;92.90
77613;DHT22;66777;52.282;5.960;2023-04-08T06:20:10;1.50;92.90
77613;DHT22;66777;52.282;5.960;2023-04-08T06:22:36;1.60;93.00
77613;DHT22;66777;52.282;5.960;2023-04-08T06:25:03;1.70;93.00
77613;DHT22;66777;52.282;5.960;2023-04-08T06:27:29;1.80;93.00
77613;DHT22;66777;52.282;5.960;2023-04-08T06:29:55;1.90;93.00
77613;DHT22;66777;52.282;5.960;2023-04-08T06:32:21;2.00;93.00
77613;DHT22;66777;52.282;5.960;2023-04-08T06:34:48;2.10;93.10
77613;DHT22;66777;52.282;5.960;2023-04-08T06:37:14;2.20;93.20
77613;DHT22;66777;52.282;5.960;2023-04-08T06:39:40;2.30;93.20
77613;DHT22;66777;52.282;5.960;2023-04-08T06:42:07;2.30;93.20
77613;DHT22;66777;52.282;5.960;2023-04-08T06:44:33;2.40;93.20
77613;DHT22;66777;52.282;5.960;2023-04-08T06:46:59;2.50;93.20
77613;DHT22;66777;52.282;5.960;2023-04-08T06:49:25;2.60;93.30
77613;DHT22;66777;52.282;5.960;2023-04-08T06:51:51;2.70;93.30
77613;DHT22;66777;52.282;5.960;2023-04-08T06:54:17;2.90;93.40
77613;DHT22;66777;52.282;5.960;2023-04-08T06:56:44;3.00;93.50
77613;DHT22;66777;52.282;5.960;2023-04-08T06:59:09;3.10;93.50
77613;DHT22;66777;52.282;5.960;2023-04-08T07:01:35;3.30;93.50
77613;DHT22;66777;52.282;5.960;2023-04-08T07:04:01;3.50;93.60
77613;DHT22;66777;52.282;5.960;2023-04-08T07:06:27;3.70;93.70
77613;DHT22;66777;52.282;5.960;2023-04-08T07:08:53;3.90;93.70
77613;DHT22;66777;52.282;5.960;2023-04-08T07:11:19;4.10;93.70
77613;DHT22;66777;52.282;5.960;2023-04-08T07:13:45;4.20;93.70
77613;DHT22;66777;52.282;5.960;2023-04-08T07:16:11;4.40;93.70
77613;DHT22;66777;52.282;5.960;2023-04-08T07:18:37;4.50;93.70
77613;DHT22;66777;52.282;5.960;2023-04-08T07:21:03;4.70;93.60
77613;DHT22;66777;52.282;5.960;2023-04-08T07:23:29;4.90;93.70
77613;DHT22;66777;52.282;5.960;2023-04-08T07:25:54;5.00;93.80
77613;DHT22;66777;52.282;5.960;2023-04-08T07:28:20;5.20;93.70
77613;DHT22;66777;52.282;5.960;2023-04-08T07:30:46;5.50;93.80
77613;DHT22;66777;52.282;5.960;2023-04-08T07:33:12;5.60;93.70
77613;DHT22;66777;52.282;5.960;2023-04-08T07:35:39;5.70;93.60
77613;DHT22;66777;52.282;5.960;2023-04-08T07:38:06;5.70;93.50
77613;DHT22;66777;52.282;5.960;2023-04-08T07:40:37;5.80;93.40
77613;DHT22;66777;52.282;5.960;2023-04-08T07:43:03;6.00;93.50
77613;DHT22;66777;52.282;5.960;2023-04-08T07:45:29;6.20;93.20
77613;DHT22;66777;52.282;5.960;2023-04-08T07:47:54;6.40;93.20
77613;DHT22;66777;52.282;5.960;2023-04-08T07:50:21;6.60;93.10
77613;DHT22;66777;52.282;5.960;2023-04-08T07:52:47;6.60;93.20
77613;DHT22;66777;52.282;5.960;2023-04-08T07:55:13;6.70;93.10
77613;DHT22;66777;52.282;5.960;2023-04-08T07:57:38;6.80;93.00
77613;DHT22;66777;52.282;5.960;2023-04-08T08:00:04;6.70;92.70
77613;DHT22;66777;52.282;5.960;2023-04-08T08:02:30;6.70;92.40
77613;DHT22;66777;52.282;5.960;2023-04-08T08:04:56;6.80;92.50
77613;DHT22;66777;52.282;5.960;2023-04-08T08:07:21;6.70;91.90
77613;DHT22;66777;52.282;5.960;2023-04-08T08:09:47;6.80;91.90
77613;DHT22;66777;52.282;5.960;2023-04-08T08:12:13;6.90;91.90
77613;DHT22;66777;52.282;5.960;2023-04-08T08:14:40;7.00;92.00
77613;DHT22;66777;52.282;5.960;2023-04-08T08:17:06;7.20;92.20
77613;DHT22;66777;52.282;5.960;2023-04-08T08:19:32;7.20;92.10
77613;DHT22;66777;52.282;5.960;2023-04-08T08:21:58;7.40;92.30
77613;DHT22;66777;52.282;5.960;2023-04-08T08:24:23;7.50;92.50
77613;DHT22;66777;52.282;5.960;2023-04-08T08:26:50;7.70;92.30
77613;DHT22;66777;52.282;5.960;2023-04-08T08:29:16;7.80;92.10
77613;DHT22;66777;52.282;5.960;2023-04-08T08:31:42;8.00;92.20
77613;DHT22;66777;52.282;5.960;2023-04-08T08:34:07;8.00;91.90
77613;DHT22;66777;52.282;5.960;2023-04-08T08:36:33;8.10;91.80
77613;DHT22;66777;52.282;5.960;2023-04-08T08:39:00;8.00;91.10
77613;DHT22;66777;52.282;5.960;2023-04-08T08:41:26;8.10;91.50
77613;DHT22;66777;52.282;5.960;2023-04-08T08:43:59;8.10;91.40
77613;DHT22;66777;52.282;5.960;2023-04-08T08:46:25;8.30;91.40
77613;DHT22;66777;52.282;5.960;2023-04-08T08:48:51;8.40;91.50
77613;DHT22;66777;52.282;5.960;2023-04-08T08:51:17;8.50;91.30
77613;DHT22;66777;52.282;5.960;2023-04-08T08:53:43;8.50;91.20
77613;DHT22;66777;52.282;5.960;2023-04-08T08:56:09;8.60;91.60
77613;DHT22;66777;52.282;5.960;2023-04-08T08:58:35;8.60;92.00
77613;DHT22;66777;52.282;5.960;2023-04-08T09:01:01;8.60;91.00
77613;DHT22;66777;52.282;5.960;2023-04-08T09:03:27;8.60;91.60
77613;DHT22;66777;52.282;5.960;2023-04-08T09:06:00;8.80;91.60
77613;DHT22;66777;52.282;5.960;2023-04-08T09:08:36;8.90;91.60
77613;DHT22;66777;52.282;5.960;2023-04-08T09:11:15;9.00;91.10
77613;DHT22;66777;52.282;5.960;2023-04-08T09:13:42;9.20;91.10
77613;DHT22;66777;52.282;5.960;2023-04-08T09:16:14;9.20;91.10
77613;DHT22;66777;52.282;5.960;2023-04-08T09:18:45;9.40;91.30
77613;DHT22;66777;52.282;5.960;2023-04-08T09:21:15;9.40;91.20
77613;DHT22;66777;52.282;5.960;2023-04-08T09:23:51;9.50;90.70
77613;DHT22;66777;52.282;5.960;2023-04-08T09:26:22;9.50;90.20
77613;DHT22;66777;52.282;5.960;2023-04-08T09:29:03;10.00;90.80
77613;DHT22;66777;52.282;5.960;2023-04-08T09:31:34;10.00;90.10
77613;DHT22;66777;52.282;5.960;2023-04-08T09:34:23;10.00;89.30
77613;DHT22;66777;52.282;5.960;2023-04-08T09:36:50;9.80;87.80
77613;DHT22;66777;52.282;5.960;2023-04-08T09:39:16;10.30;88.30
77613;DHT22;66777;52.282;5.960;2023-04-08T09:41:43;10.70;88.40
77613;DHT22;66777;52.282;5.960;2023-04-08T09:44:10;11.00;89.10
77613;DHT22;66777;52.282;5.960;2023-04-08T09:49:28;11.20;89.00
77613;DHT22;66777;52.282;5.960;2023-04-08T09:55:04;11.10;87.90
77613;DHT22;66777;52.282;5.960;2023-04-08T10:00:33;11.50;88.10
77613;DHT22;66777;52.282;5.960;2023-04-08T10:03:14;11.50;87.30
77613;DHT22;66777;52.282;5.960;2023-04-08T10:05:45;11.60;87.30
77613;DHT22;66777;52.282;5.960;2023-04-08T10:08:14;11.80;88.30
77613;DHT22;66777;52.282;5.960;2023-04-08T10:10:41;12.00;87.70
77613;DHT22;66777;52.282;5.960;2023-04-08T10:13:07;12.30;85.70
77613;DHT22;66777;52.282;5.960;2023-04-08T10:15:34;12.50;87.20
77613;DHT22;66777;52.282;5.960;2023-04-08T10:23:13;13.50;83.60
77613;DHT22;66777;52.282;5.960;2023-04-08T10:25:47;14.00;85.40
77613;DHT22;66777;52.282;5.960;2023-04-08T10:33:22;15.00;82.40
77613;DHT22;66777;52.282;5.960;2023-04-08T10:35:59;15.40;84.40
77613;DHT22;66777;52.282;5.960;2023-04-08T10:38:24;16.10;82.70
77613;DHT22;66777;52.282;5.960;2023-04-08T10:40:53;16.70;82.20
77613;DHT22;66777;52.282;5.960;2023-04-08T10:43:19;18.10;81.10
77613;DHT22;66777;52.282;5.960;2023-04-08T10:45:47;17.80;76.20
77613;DHT22;66777;52.282;5.960;2023-04-08T10:48:18;17.20;74.40
77613;DHT22;66777;52.282;5.960;2023-04-08T10:50:52;16.70;75.50
77613;DHT22;66777;52.282;5.960;2023-04-08T10:53:26;16.30;74.60
77613;DHT22;66777;52.282;5.960;2023-04-08T10:55:53;15.80;74.40
77613;DHT22;66777;52.282;5.960;2023-04-08T10:58:19;15.80;77.20
77613;DHT22;66777;52.282;5.960;2023-04-08T11:00:46;16.90;75.00
77613;DHT22;66777;52.282;5.960;2023-04-08T11:03:12;18.10;75.80
77613;DHT22;66777;52.282;5.960;2023-04-08T11:05:38;19.70;71.60
77613;DHT22;66777;52.282;5.960;2023-04-08T11:08:04;19.60;70.60
77613;DHT22;66777;52.282;5.960;2023-04-08T11:10:34;21.40;71.20
77613;DHT22;66777;52.282;5.960;2023-04-08T11:13:01;24.00;63.10
77613;DHT22;66777;52.282;5.960;2023-04-08T11:15:29;25.80;66.30
77613;DHT22;66777;52.282;5.960;2023-04-08T11:17:55;24.00;67.20
77613;DHT22;66777;52.282;5.960;2023-04-08T11:20:22;21.70;67.50
77613;DHT22;66777;52.282;5.960;2023-04-08T11:22:49;20.20;70.70
77613;DHT22;66777;52.282;5.960;2023-04-08T11:25:14;19.40;71.50
77613;DHT22;66777;52.282;5.960;2023-04-08T11:27:40;18.70;71.40
77613;DHT22;66777;52.282;5.960;2023-04-08T11:30:07;18.20;71.90
77613;DHT22;66777;52.282;5.960;2023-04-08T11:32:34;17.80;73.30
77613;DHT22;66777;52.282;5.960;2023-04-08T11:35:01;17.40;73.30
77613;DHT22;66777;52.282;5.960;2023-04-08T11:37:41;17.00;73.90
77613;DHT22;66777;52.282;5.960;2023-04-08T11:42:34;16.20;74.70
77613;DHT22;66777;52.282;5.960;2023-04-08T11:45:00;15.90;73.50
77613;DHT22;66777;52.282;5.960;2023-04-08T11:47:30;15.50;74.60
77613;DHT22;66777;52.282;5.960;2023-04-08T11:49:56;15.00;73.30
77613;DHT22;66777;52.282;5.960;2023-04-08T11:52:39;14.80;74.80
77613;DHT22;66777;52.282;5.960;2023-04-08T11:55:09;14.40;73.50
77613;DHT22;66777;52.282;5.960;2023-04-08T11:57:37;14.20;74.50
77613;DHT22;66777;52.282;5.960;2023-04-08T12:00:05;14.10;75.50
77613;DHT22;66777;52.282;5.960;2023-04-08T12:02:32;14.10;76.00
77613;DHT22;66777;52.282;5.960;2023-04-08T12:04:58;14.00;75.70
77613;DHT22;66777;52.282;5.960;2023-04-08T12:07:25;13.90;74.70
77613;DHT22;66777;52.282;5.960;2023-04-08T12:09:51;14.00;76.70
77613;DHT22;66777;52.282;5.960;2023-04-08T12:12:17;14.30;76.50
77613;DHT22;66777;52.282;5.960;2023-04-08T12:14:43;14.50;75.70
77613;DHT22;66777;52.282;5.960;2023-04-08T12:17:09;14.90;75.10
77613;DHT22;66777;52.282;5.960;2023-04-08T12:19:35;15.50;75.60
77613;DHT22;66777;52.282;5.960;2023-04-08T12:22:01;15.80;74.00
77613;DHT22;66777;52.282;5.960;2023-04-08T12:24:28;16.40;73.50
77613;DHT22;66777;52.282;5.960;2023-04-08T12:26:53;17.00;71.90
77613;DHT22;66777;52.282;5.960;2023-04-08T12:29:20;19.20;71.20
77613;DHT22;66777;52.282;5.960;2023-04-08T12:31:47;22.60;66.40
77613;DHT22;66777;52.282;5.960;2023-04-08T12:34:12;23.80;64.40
77613;DHT22;66777;52.282;5.960;2023-04-08T12:36:38;24.90;62.60
77613;DHT22;66777;52.282;5.960;2023-04-08T12:39:04;25.00;62.80
77613;DHT22;66777;52.282;5.960;2023-04-08T12:41:31;25.40;61.50
77613;DHT22;66777;52.282;5.960;2023-04-08T12:43:58;25.20;60.70
77613;DHT22;66777;52.282;5.960;2023-04-08T12:46:23;24.80;61.50
77613;DHT22;66777;52.282;5.960;2023-04-08T12:48:49;24.40;62.10
77613;DHT22;66777;52.282;5.960;2023-04-08T12:51:15;25.00;61.70
77613;DHT22;66777;52.282;5.960;2023-04-08T12:53:41;25.20;61.90
77613;DHT22;66777;52.282;5.960;2023-04-08T12:56:07;24.30;62.50
77613;DHT22;66777;52.282;5.960;2023-04-08T12:58:33;22.80;61.40
77613;DHT22;66777;52.282;5.960;2023-04-08T13:00:59;22.00;66.00
77613;DHT22;66777;52.282;5.960;2023-04-08T13:03:25;22.20;65.20
77613;DHT22;66777;52.282;5.960;2023-04-08T13:05:52;21.50;66.80
77613;DHT22;66777;52.282;5.960;2023-04-08T13:08:18;20.80;67.20
77613;DHT22;66777;52.282;5.960;2023-04-08T13:10:44;20.50;67.40
77613;DHT22;66777;52.282;5.960;2023-04-08T13:13:10;20.00;67.70
77613;DHT22;66777;52.282;5.960;2023-04-08T13:15:38;20.10;66.30
77613;DHT22;66777;52.282;5.960;2023-04-08T13:18:06;20.50;67.80
77613;DHT22;66777;52.282;5.960;2023-04-08T13:20:33;20.90;66.80
77613;DHT22;66777;52.282;5.960;2023-04-08T13:22:59;21.90;65.70
77613;DHT22;66777;52.282;5.960;2023-04-08T13:25:25;22.20;64.40
77613;DHT22;66777;52.282;5.960;2023-04-08T13:27:51;21.80;66.00
77613;DHT22;66777;52.282;5.960;2023-04-08T13:30:17;21.50;64.10
77613;DHT22;66777;52.282;5.960;2023-04-08T13:32:43;21.50;65.70
77613;DHT22;66777;52.282;5.960;2023-04-08T13:35:10;21.70;67.50
77613;DHT22;66777;52.282;5.960;2023-04-08T13:37:37;21.70;66.10
77613;DHT22;66777;52.282;5.960;2023-04-08T13:40:02;22.50;65.10
77613;DHT22;66777;52.282;5.960;2023-04-08T13:42:29;23.20;63.90
77613;DHT22;66777;52.282;5.960;2023-04-08T13:44:58;22.80;62.90
77613;DHT22;66777;52.282;5.960;2023-04-08T13:47:24;23.40;63.20
77613;DHT22;66777;52.282;5.960;2023-04-08T13:49:51;23.90;63.20
77613;DHT22;66777;52.282;5.960;2023-04-08T13:52:19;24.00;63.20
77613;DHT22;66777;52.282;5.960;2023-04-08T13:54:45;24.00;64.30
77613;DHT22;66777;52.282;5.960;2023-04-08T13:57:11;24.50;64.00
77613;DHT22;66777;52.282;5.960;2023-04-08T13:59:37;25.40;62.90
77613;DHT22;66777;52.282;5.960;2023-04-08T14:02:03;24.90;63.00
77613;DHT22;66777;52.282;5.960;2023-04-08T14:04:28;23.80;63.80
77613;DHT22;66777;52.282;5.960;2023-04-08T14:06:54;23.00;63.80
77613;DHT22;66777;52.282;5.960;2023-04-08T14:09:22;23.50;63.20
77613;DHT22;66777;52.282;5.960;2023-04-08T14:11:49;24.00;63.80
77613;DHT22;66777;52.282;5.960;2023-04-08T14:14:15;23.50;63.20
77613;DHT22;66777;52.282;5.960;2023-04-08T14:16:41;24.20;62.20
77613;DHT22;66777;52.282;5.960;2023-04-08T14:19:08;24.60;60.50
77613;DHT22;66777;52.282;5.960;2023-04-08T14:21:33;24.70;60.80
77613;DHT22;66777;52.282;5.960;2023-04-08T14:24:00;24.20;62.50
77613;DHT22;66777;52.282;5.960;2023-04-08T14:26:26;23.50;60.90
77613;DHT22;66777;52.282;5.960;2023-04-08T14:28:52;22.50;62.40
77613;DHT22;66777;52.282;5.960;2023-04-08T14:31:18;21.60;63.20
77613;DHT22;66777;52.282;5.960;2023-04-08T14:33:45;22.00;63.20
77613;DHT22;66777;52.282;5.960;2023-04-08T14:36:17;24.00;59.60
77613;DHT22;66777;52.282;5.960;2023-04-08T14:38:44;24.30;57.10
77613;DHT22;66777;52.282;5.960;2023-04-08T14:41:10;23.50;58.30
77613;DHT22;66777;52.282;5.960;2023-04-08T14:43:36;22.30;54.00
77613;DHT22;66777;52.282;5.960;2023-04-08T14:46:02;21.60;59.10
77613;DHT22;66777;52.282;5.960;2023-04-08T14:48:28;21.10;60.50
77613;DHT22;66777;52.282;5.960;2023-04-08T14:50:55;20.90;60.70
77613;DHT22;66777;52.282;5.960;2023-04-08T14:53:21;20.70;62.10
77613;DHT22;66777;52.282;5.960;2023-04-08T14:55:48;20.30;60.30
77613;DHT22;66777;52.282;5.960;2023-04-08T14:58:14;19.90;62.10
77613;DHT22;66777;52.282;5.960;2023-04-08T15:00:42;19.50;62.20
77613;DHT22;66777;52.282;5.960;2023-04-08T15:03:10;19.00;62.30
77613;DHT22;66777;52.282;5.960;2023-04-08T15:05:36;18.50;62.60
77613;DHT22;66777;52.282;5.960;2023-04-08T15:08:03;18.00;62.60
77613;DHT22;66777;52.282;5.960;2023-04-08T15:10:30;17.80;63.30
77613;DHT22;66777;52.282;5.960;2023-04-08T15:12:57;17.60;65.00
77613;DHT22;66777;52.282;5.960;2023-04-08T15:15:23;17.60;63.60
77613;DHT22;66777;52.282;5.960;2023-04-08T15:17:48;18.00;62.80
77613;DHT22;66777;52.282;5.960;2023-04-08T15:20:14;18.00;62.80
77613;DHT22;66777;52.282;5.960;2023-04-08T15:22:41;18.50;62.40
77613;DHT22;66777;52.282;5.960;2023-04-08T15:25:07;18.40;62.20
77613;DHT22;66777;52.282;5.960;2023-04-08T15:27:33;18.10;61.80
77613;DHT22;66777;52.282;5.960;2023-04-08T15:29:59;17.50;62.90
77613;DHT22;66777;52.282;5.960;2023-04-08T15:32:26;17.20;63.80
77613;DHT22;66777;52.282;5.960;2023-04-08T15:34:52;16.90;63.90
77613;DHT22;66777;52.282;5.960;2023-04-08T15:37:18;16.70;63.80
77613;DHT22;66777;52.282;5.960;2023-04-08T15:39:44;16.60;64.00
77613;DHT22;66777;52.282;5.960;2023-04-08T15:42:10;16.60;65.00
77613;DHT22;66777;52.282;5.960;2023-04-08T15:44:37;16.70;65.90
77613;DHT22;66777;52.282;5.960;2023-04-08T15:47:03;16.70;64.60
77613;DHT22;66777;52.282;5.960;2023-04-08T15:49:29;16.60;65.30
77613;DHT22;66777;52.282;5.960;2023-04-08T15:51:55;16.50;63.20
77613;DHT22;66777;52.282;5.960;2023-04-08T15:54:21;16.40;64.80
77613;DHT22;66777;52.282;5.960;2023-04-08T15:56:47;16.20;65.20
77613;DHT22;66777;52.282;5.960;2023-04-08T15:59:13;16.00;65.90
77613;DHT22;66777;52.282;5.960;2023-04-08T16:01:39;16.10;66.10
77613;DHT22;66777;52.282;5.960;2023-04-08T16:04:05;16.00;65.00